Time;durP1;ratioP1;P1;durP2;ratioP2;P2;SDS_P1;SDS_P2;PMS_P1;PMS_P2;Temp;Humidity;BMP_temperature;BMP_pressure;BME280_temperature;BME280_humidity;BME280_pressure;Samples;Min_cycle;Max_cycle;Signal;HPM_P1;HPM_P2
2023/05/05 00:02:26;;;;;;;7.75;5.55;;;14.10;99.90;;;;;;5034817;28;20057;-87
2023/05/05 00:05:13;;;;;;;7.80;5.88;;;14.10;99.90;;;;;;5027136;28;20057;-86
2023/05/05 00:08:03;;;;;;;7.05;5.85;;;14.30;99.90;;;;;;5016745;28;20050;-88
2023/05/05 00:10:51;;;;;;;9.30;6.53;;;14.30;99.90;;;;;;5032440;28;20096;-85
2023/05/05 00:13:39;;;;;;;9.35;6.05;;;14.30;99.90;;;;;;5040681;28;20050;-84
2023/05/05 00:16:29;;;;;;;7.70;6.32;;;14.20;99.90;;;;;;5031432;28;20041;-86
2023/05/05 00:19:16;;;;;;;12.15;6.20;;;14.00;99.90;;;;;;5037472;28;20072;-87
2023/05/05 00:22:06;;;;;;;9.82;6.05;;;13.90;99.90;;;;;;5027086;28;20123;-86
2023/05/05 00:24:53;;;;;;;6.40;5.75;;;13.70;99.90;;;;;;5016827;28;20452;-86
2023/05/05 00:27:43;;;;;;;8.38;6.18;;;13.70;99.90;;;;;;5024017;28;20101;-85
2023/05/05 00:30:30;;;;;;;8.60;6.15;;;13.60;99.90;;;;;;5033750;28;20053;-87
2023/05/05 00:33:20;;;;;;;9.15;6.43;;;13.70;99.90;;;;;;5022638;28;20098;-86
2023/05/05 00:36:08;;;;;;;9.93;5.80;;;13.70;99.90;;;;;;5027117;28;20041;-86
2023/05/05 00:38:57;;;;;;;9.25;5.90;;;13.80;99.90;;;;;;5032302;28;20323;-87
2023/05/05 00:41:45;;;;;;;8.20;6.00;;;13.90;99.90;;;;;;5031760;28;20159;-85
2023/05/05 00:44:40;;;;;;;9.52;5.85;;;14.00;99.90;;;;;;5021314;28;20144;-85
2023/05/05 00:47:27;;;;;;;6.57;5.88;;;14.00;99.90;;;;;;5036706;28;20042;-86
2023/05/05 00:50:24;;;;;;;7.93;5.50;;;14.00;99.90;;;;;;5036267;28;20060;-87
2023/05/05 00:53:12;;;;;;;7.70;5.50;;;14.00;99.90;;;;;;5036012;28;20041;-87
2023/05/05 00:55:59;;;;;;;8.00;5.78;;;14.00;99.90;;;;;;5044720;28;20042;-87
2023/05/05 00:58:49;;;;;;;17.15;8.55;;;13.90;99.90;;;;;;5035869;28;20056;-87
2023/05/05 01:01:37;;;;;;;12.93;8.95;;;13.90;99.90;;;;;;5014054;28;20042;-87
2023/05/05 01:04:26;;;;;;;11.82;7.90;;;13.90;99.90;;;;;;5035434;28;20053;-86
2023/05/05 01:07:16;;;;;;;8.88;7.03;;;13.80;99.90;;;;;;5035564;28;20353;-85
2023/05/05 01:10:31;;;;;;;8.10;6.35;;;13.70;99.90;;;;;;5030049;28;20050;-87
2023/05/05 01:13:51;;;;;;;11.90;6.28;;;13.60;99.90;;;;;;5035475;28;20053;-86
2023/05/05 01:16:58;;;;;;;9.57;6.75;;;13.60;99.90;;;;;;5031844;28;20441;-85
2023/05/05 01:19:57;;;;;;;9.82;7.47;;;13.50;99.90;;;;;;5034445;28;20073;-85
2023/05/05 01:22:46;;;;;;;8.32;7.50;;;13.30;99.90;;;;;;5013532;28;20053;-86
2023/05/05 01:26:04;;;;;;;7.30;6.60;;;13.30;99.90;;;;;;5025146;28;20045;-86
2023/05/05 01:29:19;;;;;;;9.93;6.43;;;13.20;99.90;;;;;;5026942;28;20417;-86
2023/05/05 01:32:15;;;;;;;10.15;6.82;;;13.20;99.90;;;;;;5028968;28;20056;-86
2023/05/05 01:35:12;;;;;;;8.32;6.07;;;13.10;99.90;;;;;;5013090;28;20068;-86
2023/05/05 01:38:15;;;;;;;7.80;6.55;;;13.00;99.90;;;;;;5031073;28;20334;-86
2023/05/05 01:41:29;;;;;;;7.38;5.78;;;12.90;99.90;;;;;;5029380;28;20050;-86
2023/05/05 01:44:17;;;;;;;;;;;12.90;99.90;;;;;;5013186;28;20057;-86
2023/05/05 01:47:05;;;;;;;10.32;5.78;;;12.80;99.90;;;;;;5038689;28;20067;-85
2023/05/05 01:49:53;;;;;;;8.52;5.68;;;12.90;99.90;;;;;;5023073;28;20044;-85
2023/05/05 01:52:45;;;;;;;11.57;7.20;;;12.90;99.90;;;;;;5035903;28;20057;-85
2023/05/05 01:55:33;;;;;;;11.83;8.57;;;12.90;99.90;;;;;;5042510;28;20360;-86
2023/05/05 01:58:22;;;;;;;9.18;7.07;;;12.80;99.90;;;;;;5019872;28;20057;-87
2023/05/05 02:01:11;;;;;;;8.07;5.68;;;12.60;99.90;;;;;;5034695;28;20440;-86
2023/05/05 02:04:03;;;;;;;9.38;6.15;;;12.60;1.00;;;;;;5019296;28;20052;-87
2023/05/05 02:06:52;;;;;;;10.93;6.13;;;12.70;1.00;;;;;;5022198;28;20112;-86
2023/05/05 02:09:41;;;;;;;7.40;5.05;;;12.70;1.00;;;;;;5038736;28;20135;-86
2023/05/05 02:12:32;;;;;;;7.60;5.72;;;12.80;1.00;;;;;;5016266;28;20049;-86
2023/05/05 02:15:24;;;;;;;4.53;3.93;;;12.90;99.90;;;;;;5035415;28;20037;-85
2023/05/05 02:18:14;;;;;;;6.53;5.28;;;13.00;99.90;;;;;;5020009;28;20435;-88
2023/05/05 02:21:03;;;;;;;7.03;5.75;;;13.10;99.90;;;;;;5033598;28;20046;-85
2023/05/05 02:23:51;;;;;;;9.30;5.78;;;13.10;99.90;;;;;;5030386;28;20049;-86
2023/05/05 02:26:40;;;;;;;6.68;5.35;;;13.10;99.90;;;;;;5020056;28;20111;-85
2023/05/05 02:29:40;;;;;;;12.55;6.15;;;13.10;99.90;;;;;;5031962;28;20050;-86
2023/05/05 02:32:35;;;;;;;6.10;5.55;;;13.00;99.90;;;;;;5025450;28;20045;-87
2023/05/05 02:35:36;;;;;;;7.72;5.22;;;13.00;99.90;;;;;;5027868;28;20385;-86
2023/05/05 02:38:28;;;;;;;10.15;5.88;;;12.80;99.90;;;;;;5034056;28;20045;-87
2023/05/05 02:41:20;;;;;;;9.27;6.78;;;12.80;99.90;;;;;;5017101;28;20057;-86
2023/05/05 02:44:11;;;;;;;7.63;5.60;;;12.70;1.00;;;;;;5011506;28;20104;-86
2023/05/05 02:46:58;;;;;;;10.25;5.82;;;12.70;1.00;;;;;;5013225;28;20528;-85
2023/05/05 02:49:48;;;;;;;8.23;5.70;;;12.80;1.00;;;;;;5021737;28;20053;-86
2023/05/05 02:52:35;;;;;;;6.47;5.72;;;13.00;99.90;;;;;;5033153;28;20045;-87
2023/05/05 02:55:24;;;;;;;7.97;5.55;;;13.00;99.90;;;;;;5029891;28;20456;-88
2023/05/05 02:58:23;;;;;;;10.70;6.32;;;13.00;99.90;;;;;;5038309;28;20049;-86
2023/05/05 03:01:31;;;;;;;7.25;5.70;;;12.90;99.90;;;;;;5030123;28;20108;-87
2023/05/05 03:04:26;;;;;;;10.25;5.90;;;12.80;1.00;;;;;;5030960;28;20041;-85
2023/05/05 03:07:58;;;;;;;10.23;5.57;;;12.80;1.00;;;;;;5027387;28;20159;-87
2023/05/05 03:11:07;;;;;;;9.57;5.30;;;12.80;1.00;;;;;;5033952;28;20465;-87
2023/05/05 03:14:17;;;;;;;6.63;5.22;;;12.90;1.00;;;;;;5021960;28;20128;-86
2023/05/05 03:17:05;;;;;;;7.60;5.22;;;13.00;1.00;;;;;;5027347;28;20042;-86
2023/05/05 03:19:53;;;;;;;7.55;5.53;;;13.10;1.00;;;;;;5019812;28;20453;-87
2023/05/05 03:22:40;;;;;;;7.22;5.25;;;13.10;1.00;;;;;;5017494;28;20049;-86
2023/05/05 03:25:48;;;;;;;8.18;5.57;;;13.10;1.00;;;;;;5026577;28;20064;-86
2023/05/05 03:28:35;;;;;;;6.38;5.72;;;12.90;1.00;;;;;;5028935;28;20435;-87
2023/05/05 03:31:24;;;;;;;6.93;6.20;;;12.90;1.00;;;;;;5039305;28;20084;-86
2023/05/05 03:34:12;;;;;;;7.28;5.80;;;12.80;1.00;;;;;;5024092;28;20049;-86
2023/05/05 03:36:59;;;;;;;8.68;6.32;;;12.70;1.00;;;;;;5016809;28;20125;-85
2023/05/05 03:39:49;;;;;;;7.78;6.18;;;12.80;1.00;;;;;;5028468;28;20057;-87
2023/05/05 03:42:36;;;;;;;7.63;5.85;;;12.80;1.00;;;;;;5037292;28;20107;-87
2023/05/05 03:45:24;;;;;;;8.00;5.75;;;12.80;1.00;;;;;;5037737;28;20575;-87
2023/05/05 03:48:11;;;;;;;8.68;5.57;;;12.90;1.00;;;;;;5012975;28;20457;-82
2023/05/05 03:51:00;;;;;;;6.28;5.35;;;13.00;1.00;;;;;;5018781;28;20042;-86
2023/05/05 03:53:47;;;;;;;10.70;6.10;;;13.10;1.00;;;;;;5032213;28;20550;-87
2023/05/05 03:56:35;;;;;;;7.68;5.72;;;13.20;1.00;;;;;;5035776;28;20053;-86
2023/05/05 03:59:22;;;;;;;7.50;5.93;;;13.20;1.00;;;;;;5013450;28;20120;-87
2023/05/05 04:02:09;;;;;;;8.82;5.97;;;13.30;1.00;;;;;;5032113;28;20046;-86
2023/05/05 04:04:56;;;;;;;6.85;5.15;;;13.40;1.00;;;;;;5010089;28;20060;-85
2023/05/05 04:07:44;;;;;;;9.02;4.68;;;13.50;1.00;;;;;;5017378;28;20049;-86
2023/05/05 04:10:31;;;;;;;5.47;4.65;;;13.70;1.00;;;;;;5028597;28;20136;-86
2023/05/05 04:13:18;;;;;;;6.70;5.07;;;13.80;1.00;;;;;;5014217;28;20460;-85
2023/05/05 04:16:07;;;;;;;5.78;4.88;;;13.70;1.00;;;;;;5033472;28;20437;-85
2023/05/05 04:18:54;;;;;;;7.13;4.80;;;13.80;1.00;;;;;;5010020;28;20561;-85
2023/05/05 04:21:42;;;;;;;5.00;4.50;;;13.90;1.00;;;;;;5033007;28;20052;-86
2023/05/05 04:24:29;;;;;;;7.10;4.82;;;14.00;1.00;;;;;;5032098;28;20061;-87
2023/05/05 04:27:19;;;;;;;7.68;5.45;;;14.20;1.00;;;;;;5023581;28;20469;-86
2023/05/05 04:30:10;;;;;;;8.55;5.20;;;14.20;99.90;;;;;;5035557;28;20053;-86
2023/05/05 04:32:59;;;;;;;8.82;4.70;;;14.30;99.90;;;;;;5028747;28;20072;-86
2023/05/05 04:35:47;;;;;;;7.70;4.60;;;14.40;99.90;;;;;;5032622;28;20133;-88
2023/05/05 04:38:35;;;;;;;5.90;4.38;;;14.50;99.90;;;;;;5007693;28;20059;-85
2023/05/05 04:41:22;;;;;;;6.00;4.38;;;14.50;99.90;;;;;;5018255;28;20123;-88
2023/05/05 04:44:10;;;;;;;10.77;5.05;;;14.50;99.90;;;;;;5030903;28;20052;-87
2023/05/05 04:46:59;;;;;;;9.38;4.00;;;14.50;99.90;;;;;;5033592;28;20054;-87
2023/05/05 04:49:46;;;;;;;5.90;4.35;;;14.50;99.90;;;;;;5017436;28;20053;-87
2023/05/05 04:52:33;;;;;;;5.75;4.32;;;14.60;99.90;;;;;;5032756;28;20119;-87
2023/05/05 04:55:20;;;;;;;5.82;4.30;;;14.60;99.90;;;;;;5029996;28;20045;-89
2023/05/05 04:58:07;;;;;;;5.43;4.47;;;14.60;99.90;;;;;;5036924;28;20532;-85
2023/05/05 05:00:55;;;;;;;8.15;4.60;;;14.60;99.90;;;;;;5052363;28;20097;-88
2023/05/05 05:03:42;;;;;;;9.80;4.50;;;14.60;99.90;;;;;;5031937;28;20050;-88
2023/05/05 05:06:32;;;;;;;11.40;5.50;;;14.50;99.90;;;;;;5041731;28;20072;-87
2023/05/05 05:09:19;;;;;;;9.32;4.50;;;14.50;99.90;;;;;;5046386;28;20085;-85
2023/05/05 05:12:09;;;;;;;8.43;4.97;;;14.50;99.90;;;;;;5053372;28;20049;-84
2023/05/05 05:15:00;;;;;;;9.68;4.93;;;14.40;99.90;;;;;;5051827;28;20101;-84
2023/05/05 05:17:48;;;;;;;10.18;5.22;;;14.40;99.90;;;;;;5030908;28;20050;-86
2023/05/05 05:20:40;;;;;;;7.93;4.80;;;14.40;99.90;;;;;;5043840;28;20129;-87
2023/05/05 05:23:27;;;;;;;6.77;4.73;;;14.40;99.90;;;;;;5031879;28;20096;-85
2023/05/05 05:26:15;;;;;;;5.72;4.28;;;14.40;99.90;;;;;;5031332;28;20064;-89
2023/05/05 05:29:06;;;;;;;7.07;4.93;;;14.50;99.90;;;;;;5045073;28;20045;-89
2023/05/05 05:31:53;;;;;;;8.75;4.65;;;14.60;99.90;;;;;;5033333;28;20064;-89
2023/05/05 05:34:40;;;;;;;9.40;4.15;;;14.70;99.90;;;;;;5037939;28;20468;-87
2023/05/05 05:37:29;;;;;;;5.60;4.10;;;14.80;99.90;;;;;;5041867;28;20071;-87
2023/05/05 05:40:21;;;;;;;7.32;3.50;;;15.00;99.90;;;;;;5028317;28;20060;-87
2023/05/05 05:43:11;;;;;;;5.78;4.00;;;15.10;99.90;;;;;;5032217;28;20049;-86
2023/05/05 05:46:01;;;;;;;6.10;3.30;;;15.40;99.90;;;;;;5033728;28;20053;-87
2023/05/05 05:48:48;;;;;;;6.38;4.10;;;15.80;99.90;;;;;;5037271;28;20052;-85
2023/05/05 05:51:35;;;;;;;3.83;3.35;;;16.10;99.90;;;;;;5043815;28;20060;-88
2023/05/05 05:54:22;;;;;;;3.97;3.58;;;16.30;99.90;;;;;;5043725;28;20049;-88
2023/05/05 05:57:10;;;;;;;5.00;3.53;;;16.50;99.90;;;;;;5045545;28;20067;-87
2023/05/05 05:59:57;;;;;;;6.03;3.33;;;16.70;99.90;;;;;;5038316;28;20045;-85
2023/05/05 06:02:47;;;;;;;5.07;3.85;;;16.70;99.90;;;;;;5032897;28;20045;-88
2023/05/05 06:05:37;;;;;;;6.50;3.20;;;16.70;99.90;;;;;;5019632;28;20464;-89
2023/05/05 06:08:25;;;;;;;5.00;3.30;;;16.60;99.90;;;;;;5019892;28;20485;-85
2023/05/05 06:11:14;;;;;;;4.63;3.53;;;16.70;99.90;;;;;;5049217;28;20057;-87
2023/05/05 06:14:01;;;;;;;7.10;3.15;;;16.90;99.90;;;;;;5040554;28;20045;-88
2023/05/05 06:16:48;;;;;;;5.50;3.70;;;17.00;99.90;;;;;;5048202;28;20080;-86
2023/05/05 06:19:38;;;;;;;5.50;3.35;;;17.10;99.90;;;;;;5053538;28;20045;-85
2023/05/05 06:22:25;;;;;;;4.82;3.13;;;17.10;99.90;;;;;;5036358;28;20129;-88
2023/05/05 06:25:13;;;;;;;6.07;3.60;;;17.20;99.90;;;;;;5029283;28;20400;-89
2023/05/05 06:28:04;;;;;;;7.93;3.15;;;17.10;99.90;;;;;;5036503;28;20449;-87
2023/05/05 06:30:51;;;;;;;4.70;3.13;;;17.10;99.90;;;;;;5031189;28;20120;-87
2023/05/05 06:33:39;;;;;;;3.97;3.35;;;17.10;99.90;;;;;;5045499;28;20048;-88
2023/05/05 06:36:28;;;;;;;9.30;4.80;;;17.10;99.90;;;;;;5052681;28;20049;-86
2023/05/05 06:39:16;;;;;;;7.05;3.90;;;17.20;99.90;;;;;;5044926;28;20038;-88
2023/05/05 06:42:05;;;;;;;5.95;3.10;;;17.40;99.90;;;;;;5053228;28;20179;-87
2023/05/05 06:44:53;;;;;;;7.57;2.70;;;17.40;99.90;;;;;;5046599;28;20050;-88
2023/05/05 06:47:41;;;;;;;5.13;2.90;;;17.50;99.90;;;;;;5022627;28;20041;-87
2023/05/05 06:50:28;;;;;;;4.97;2.72;;;17.50;99.90;;;;;;5026852;28;20049;-86
2023/05/05 06:53:16;;;;;;;4.80;2.47;;;17.50;99.90;;;;;;5035301;28;20053;-89
2023/05/05 06:56:04;;;;;;;2.88;2.33;;;17.50;99.90;;;;;;5032463;28;20057;-90
2023/05/05 06:58:51;;;;;;;4.47;2.30;;;17.50;99.90;;;;;;5014827;28;20435;-87
2023/05/05 07:01:40;;;;;;;2.78;1.90;;;17.50;99.90;;;;;;5032094;28;20049;-87
2023/05/05 07:04:27;;;;;;;6.60;1.98;;;17.60;99.90;;;;;;5034940;28;20068;-88
2023/05/05 07:07:15;;;;;;;5.05;2.65;;;17.70;99.90;;;;;;5035076;28;20051;-86
2023/05/05 07:10:03;;;;;;;5.25;2.78;;;17.70;99.90;;;;;;5034199;28;20100;-90
2023/05/05 07:12:53;;;;;;;3.42;2.20;;;17.70;99.90;;;;;;5034535;28;20100;-89
2023/05/05 07:15:45;;;;;;;7.90;2.35;;;17.70;99.90;;;;;;5033772;28;20125;-90
2023/05/05 07:18:32;;;;;;;5.53;2.65;;;17.70;99.90;;;;;;5032633;28;20045;-89
2023/05/05 07:21:22;;;;;;;6.88;2.65;;;17.50;99.90;;;;;;5040798;28;20046;-88
2023/05/05 07:24:09;;;;;;;4.90;2.85;;;17.30;99.90;;;;;;5037343;28;20103;-86
2023/05/05 07:26:58;;;;;;;4.72;2.47;;;17.20;99.90;;;;;;5037822;28;20064;-87
2023/05/05 07:29:45;;;;;;;4.47;2.58;;;17.00;99.90;;;;;;5058100;28;20052;-86
2023/05/05 07:32:37;;;;;;;3.72;2.65;;;16.80;99.90;;;;;;5033580;28;20045;-89
2023/05/05 07:35:25;;;;;;;4.93;2.83;;;16.70;99.90;;;;;;5034474;28;20049;-87
2023/05/05 07:38:12;;;;;;;6.97;3.55;;;16.40;99.90;;;;;;5035544;28;20045;-87
2023/05/05 07:41:00;;;;;;;6.15;3.47;;;16.20;99.90;;;;;;5036383;28;20052;-88
2023/05/05 07:43:47;;;;;;;5.35;3.28;;;16.10;99.90;;;;;;5036810;28;20421;-87
2023/05/05 07:46:35;;;;;;;4.22;3.30;;;15.90;1.00;;;;;;5031233;28;20100;-87
2023/05/05 07:49:25;;;;;;;5.05;3.90;;;15.70;1.00;;;;;;5018744;28;20037;-87
2023/05/05 07:52:13;;;;;;;6.55;3.75;;;15.60;1.00;;;;;;5031126;28;20049;-87
2023/05/05 07:55:00;;;;;;;10.77;4.10;;;15.50;3.60;;;;;;5025616;28;20069;-86
2023/05/05 07:57:48;;;;;;;7.63;4.20;;;15.40;99.90;;;;;;5037245;28;20101;-86
2023/05/05 08:00:35;;;;;;;6.05;4.30;;;15.30;99.90;;;;;;5035129;28;20107;-87
2023/05/05 08:03:25;;;;;;;7.75;4.57;;;15.30;99.90;;;;;;5020702;28;20051;-86
2023/05/05 08:06:15;;;;;;;7.85;4.18;;;15.20;99.90;;;;;;5029146;28;20373;-89
2023/05/05 08:09:06;;;;;;;9.52;4.50;;;15.20;99.90;;;;;;5029923;28;20124;-89
2023/05/05 08:11:53;;;;;;;9.13;4.82;;;15.30;1.00;;;;;;5049051;28;20061;-86
2023/05/05 08:14:43;;;;;;;10.93;5.30;;;15.50;1.00;;;;;;5051421;28;20053;-87
2023/05/05 08:17:46;;;;;;;9.18;5.10;;;15.40;1.00;;;;;;5036741;28;20054;-87
2023/05/05 08:20:34;;;;;;;6.70;5.32;;;15.40;1.00;;;;;;5038258;28;20049;-87
2023/05/05 08:23:21;;;;;;;7.57;5.60;;;15.40;1.00;;;;;;5021737;28;20037;-89
2023/05/05 08:26:09;;;;;;;8.73;6.00;;;15.40;1.00;;;;;;5042819;28;20463;-89
2023/05/05 08:28:59;;;;;;;11.25;6.22;;;15.50;1.00;;;;;;5032129;28;20056;-87
2023/05/05 08:31:46;;;;;;;10.25;6.88;;;15.70;1.00;;;;;;5034652;28;20603;-87
2023/05/05 08:34:34;;;;;;;7.90;5.40;;;15.80;1.00;;;;;;5031359;28;20051;-89
2023/05/05 08:37:22;;;;;;;5.82;5.05;;;15.90;99.90;;;;;;5037384;28;20059;-88
2023/05/05 08:40:15;;;;;;;9.05;6.07;;;16.00;99.90;;;;;;5032761;28;20053;-89
2023/05/05 08:43:04;;;;;;;;;;;16.30;99.90;;;;;;5023357;28;20518;-87
2023/05/05 08:45:58;;;;;;;6.70;4.65;;;16.60;99.90;;;;;;5042216;28;20366;-87
2023/05/05 08:48:48;;;;;;;9.23;4.68;;;16.90;99.90;;;;;;5026399;28;20061;-86
2023/05/05 08:51:41;;;;;;;10.15;4.30;;;17.30;99.90;;;;;;5031397;28;20435;-85
2023/05/05 08:54:29;;;;;;;;;;;17.70;81.20;;;;;;5038191;28;20045;-89
2023/05/05 08:57:23;;;;;;;5.00;4.03;;;18.00;1.00;;;;;;5022144;28;20004;-89
2023/05/05 09:00:15;;;;;;;5.63;3.97;;;18.20;1.00;;;;;;5041050;28;20047;-87
2023/05/05 09:03:04;;;;;;;5.65;4.13;;;18.20;1.00;;;;;;5014734;28;20051;-87
2023/05/05 09:05:52;;;;;;;7.97;4.10;;;18.20;1.00;;;;;;5037127;28;20515;-89
2023/05/05 09:08:42;;;;;;;8.02;3.88;;;18.50;1.00;;;;;;5050187;28;20049;-89
2023/05/05 09:11:31;;;;;;;6.25;4.40;;;18.70;99.90;;;;;;5033674;28;20059;-87
2023/05/05 09:14:18;;;;;;;7.97;5.35;;;18.40;99.90;;;;;;5031361;28;20054;-89
2023/05/05 09:17:20;;;;;;;6.35;4.05;;;18.50;99.90;;;;;;5037968;28;20417;-87
2023/05/05 09:20:14;;;;;;;7.90;4.40;;;18.30;99.90;;;;;;5023616;28;20073;-86
2023/05/05 09:23:18;;;;;;;5.88;4.35;;;18.10;99.90;;;;;;5032025;28;20294;-88
2023/05/05 09:26:11;;;;;;;6.45;4.32;;;18.00;99.90;;;;;;5050042;28;20104;-86
2023/05/05 09:29:03;;;;;;;5.55;4.40;;;19.00;99.90;;;;;;5036071;28;20150;-89
2023/05/05 09:32:07;;;;;;;5.35;3.78;;;20.30;99.90;;;;;;5042638;28;20045;-86
2023/05/05 09:35:01;;;;;;;8.02;3.55;;;21.80;99.90;;;;;;5050079;28;20040;-85
2023/05/05 09:37:48;;;;;;;7.50;3.85;;;22.40;99.90;;;;;;5029520;28;20061;-90
2023/05/05 09:40:50;;;;;;;4.15;3.42;;;22.20;99.90;;;;;;5035022;28;20045;-86
2023/05/05 09:43:50;;;;;;;3.70;2.97;;;23.60;99.90;;;;;;5023900;28;20037;-88
2023/05/05 09:46:49;;;;;;;4.00;3.15;;;24.00;99.90;;;;;;5036341;28;20049;-88
2023/05/05 09:49:37;;;;;;;5.30;2.70;;;23.80;97.40;;;;;;5034483;28;20069;-88
2023/05/05 09:52:27;;;;;;;6.22;3.53;;;23.70;55.60;;;;;;5030723;28;20329;-88
2023/05/05 10:00:38;;;;;;;4.05;2.55;;;21.90;45.30;;;;;;5715701;22;8551665;-88
2023/05/05 10:03:26;;;;;;;2.92;2.15;;;22.00;40.80;;;;;;4963113;28;20121;-87
2023/05/05 10:06:15;;;;;;;5.03;2.40;;;22.30;53.00;;;;;;4985155;28;20047;-88
2023/05/05 10:09:02;;;;;;;3.53;2.20;;;22.70;36.00;;;;;;4993594;28;20046;-86
2023/05/05 10:11:50;;;;;;;5.25;2.03;;;23.20;27.70;;;;;;4977249;28;20042;-88
2023/05/05 10:14:37;;;;;;;3.67;2.35;;;22.90;15.20;;;;;;4961404;28;20044;-86
2023/05/05 10:17:30;;;;;;;4.50;2.03;;;21.90;11.50;;;;;;4985531;28;20058;-82
2023/05/05 10:20:23;;;;;;;2.72;2.20;;;21.50;19.70;;;;;;4981327;28;20510;-87
2023/05/05 10:23:16;;;;;;;4.37;2.60;;;21.30;20.40;;;;;;4980614;28;20049;-86
2023/05/05 10:26:06;;;;;;;4.60;2.08;;;20.70;23.30;;;;;;4963015;28;20044;-88
2023/05/05 10:29:04;;;;;;;3.63;2.33;;;20.20;56.70;;;;;;4980692;28;20498;-89
2023/05/05 10:31:55;;;;;;;5.43;2.00;;;20.20;80.70;;;;;;4977154;28;20046;-88
2023/05/05 10:35:01;;;;;;;5.50;2.20;;;20.20;91.40;;;;;;4976049;28;20141;-88
2023/05/05 10:37:51;;;;;;;4.00;2.00;;;20.20;95.50;;;;;;4978565;28;20081;-84
2023/05/05 10:40:47;;;;;;;4.03;2.30;;;20.10;91.40;;;;;;4987077;28;20039;-89
2023/05/05 10:43:37;;;;;;;3.88;1.92;;;19.80;68.80;;;;;;4984533;28;20062;-88
2023/05/05 10:46:28;;;;;;;3.30;2.28;;;19.70;67.40;;;;;;4962590;28;20058;-88
2023/05/05 10:49:43;;;;;;;5.20;2.72;;;19.70;99.90;;;;;;4980069;28;20046;-89
2023/05/05 10:52:41;;;;;;;4.72;2.53;;;19.80;99.90;;;;;;4971385;28;20399;-88
2023/05/05 10:55:44;;;;;;;6.22;2.55;;;19.60;99.90;;;;;;4974596;28;20189;-88
2023/05/05 10:58:33;;;;;;;5.93;2.53;;;19.60;99.90;;;;;;4977335;28;20144;-87
2023/05/05 11:01:38;;;;;;;3.83;2.25;;;19.80;99.90;;;;;;4980509;28;20110;-88
2023/05/05 11:04:27;;;;;;;8.27;2.42;;;20.20;99.90;;;;;;4983669;28;20054;-87
2023/05/05 11:07:22;;;;;;;6.68;2.63;;;20.60;99.90;;;;;;4981594;28;20370;-90
2023/05/05 11:10:11;;;;;;;3.63;2.08;;;21.20;99.90;;;;;;4971931;28;20058;-87
2023/05/05 11:13:01;;;;;;;4.47;2.05;;;22.00;99.90;;;;;;4980090;28;20138;-89
2023/05/05 11:15:50;;;;;;;2.83;2.28;;;23.10;99.90;;;;;;4971521;28;20135;-89
2023/05/05 11:18:39;;;;;;;3.70;2.08;;;23.90;52.90;;;;;;4979909;28;20058;-87
2023/05/05 11:21:26;;;;;;;4.18;2.30;;;24.60;40.30;;;;;;4988145;28;20050;-88
2023/05/05 11:24:32;;;;;;;3.05;1.83;;;24.50;9.60;;;;;;4976717;28;20512;-88
2023/05/05 11:27:19;;;;;;;4.32;2.10;;;24.00;12.20;;;;;;4968666;28;20046;-87
2023/05/05 11:30:08;;;;;;;4.63;1.95;;;24.40;7.20;;;;;;4970727;28;20071;-89
2023/05/05 11:33:30;;;;;;;1.95;1.70;;;25.00;1.00;;;;;;4979795;28;20212;-90
2023/05/05 11:36:19;;;;;;;2.20;1.43;;;24.90;1.00;;;;;;4970962;28;20108;-87
2023/05/05 11:39:17;;;;;;;2.47;1.60;;;26.10;1.00;;;;;;4981126;28;20108;-89
2023/05/05 11:42:26;;;;;;;3.55;2.00;;;26.80;1.00;;;;;;4965242;28;20064;-89
2023/05/05 11:45:23;;;;;;;2.83;1.83;;;27.10;1.00;;;;;;4976663;28;20050;-88
2023/05/05 11:48:25;;;;;;;2.53;1.70;;;26.00;1.00;;;;;;4978582;28;20058;-89
2023/05/05 11:51:17;;;;;;;5.78;2.78;;;25.70;1.00;;;;;;4972959;28;20102;-88
2023/05/05 11:54:07;;;;;;;2.47;1.57;;;25.70;1.00;;;;;;4970694;28;20061;-88
2023/05/05 11:57:09;;;;;;;3.10;1.90;;;26.20;1.00;;;;;;4956647;28;20046;-90
2023/05/05 12:00:08;;;;;;;5.45;1.95;;;27.00;1.00;;;;;;4983269;28;20074;-88
2023/05/05 12:02:58;;;;;;;4.00;2.35;;;26.00;1.00;;;;;;4969299;28;20061;-87
2023/05/05 12:05:52;;;;;;;3.15;2.25;;;25.10;1.00;;;;;;4983884;28;20066;-89
2023/05/05 12:08:40;;;;;;;2.90;2.05;;;24.80;1.00;;;;;;4971367;28;20062;-90
2023/05/05 12:11:27;;;;;;;3.70;2.40;;;24.50;1.00;;;;;;4970364;28;20193;-88
2023/05/05 12:14:20;;;;;;;4.43;2.15;;;23.50;1.00;;;;;;4985686;28;20057;-89
2023/05/05 12:17:10;;;;;;;3.67;2.30;;;22.60;1.00;;;;;;4973491;28;20370;-88
2023/05/05 12:19:57;;;;;;;4.90;2.20;;;22.00;1.00;;;;;;4983323;28;20101;-87
2023/05/05 12:22:45;;;;;;;2.80;2.08;;;21.70;1.00;;;;;;4989961;28;20061;-84
2023/05/05 12:25:37;;;;;;;2.95;1.70;;;21.50;1.00;;;;;;4979235;28;20051;-87
2023/05/05 12:28:45;;;;;;;4.15;1.67;;;21.40;1.00;;;;;;4960258;28;20486;-89
2023/05/05 12:31:40;;;;;;;3.60;1.65;;;21.50;1.00;;;;;;4967956;28;20054;-88
2023/05/05 12:34:28;;;;;;;3.42;1.50;;;21.80;1.00;;;;;;4972589;28;20050;-87
2023/05/05 12:37:17;;;;;;;3.60;1.58;;;22.00;1.00;;;;;;4979478;28;20437;-88
2023/05/05 12:40:46;;;;;;;2.95;1.30;;;22.40;1.00;;;;;;4971924;28;20057;-90
2023/05/05 12:43:34;;;;;;;4.65;1.83;;;22.70;1.00;;;;;;4966365;28;20062;-88
2023/05/05 12:46:22;;;;;;;2.92;1.42;;;23.30;1.00;;;;;;4985346;28;20055;-87
2023/05/05 12:49:10;;;;;;;4.40;1.50;;;24.20;1.00;;;;;;4991185;28;20051;-89
2023/05/05 12:52:00;;;;;;;4.05;1.60;;;25.80;1.00;;;;;;4987134;28;20145;-86
2023/05/05 12:55:06;;;;;;;1.67;1.27;;;26.40;1.00;;;;;;4970421;28;20475;-88
2023/05/05 12:58:03;;;;;;;2.10;1.42;;;26.70;1.00;;;;;;4976211;28;20071;-88
2023/05/05 13:01:09;;;;;;;2.30;1.48;;;26.50;1.00;;;;;;4979120;28;20061;-90
2023/05/05 13:04:06;;;;;;;4.07;1.10;;;26.60;1.00;;;;;;4982708;28;20065;-87
2023/05/05 13:07:12;;;;;;;1.55;1.35;;;26.80;1.00;;;;;;4962902;28;20123;-89
2023/05/05 13:10:09;;;;;;;2.13;1.38;;;26.60;1.00;;;;;;4987506;28;20129;-89
2023/05/05 13:12:57;;;;;;;2.80;1.40;;;26.30;1.00;;;;;;4961954;28;20043;-89
2023/05/05 13:15:44;;;;;;;3.58;1.33;;;26.90;1.00;;;;;;4989436;28;20145;-86
2023/05/05 13:18:45;;;;;;;3.28;1.48;;;27.20;1.00;;;;;;4982324;28;20061;-89
2023/05/05 13:21:32;;;;;;;2.00;1.25;;;27.70;1.00;;;;;;4979337;28;20039;-88
2023/05/05 13:24:23;;;;;;;4.90;1.45;;;27.40;1.00;;;;;;4986076;28;20100;-87
2023/05/05 13:27:32;;;;;;;2.47;1.10;;;26.80;1.00;;;;;;4992638;28;20047;-88
2023/05/05 13:30:20;;;;;;;1.33;1.10;;;26.30;1.00;;;;;;4998083;28;20074;-88
2023/05/05 13:33:07;;;;;;;2.45;1.30;;;27.00;1.00;;;;;;5001052;28;20030;-79
2023/05/05 13:35:55;;;;;;;3.50;1.35;;;27.50;1.00;;;;;;5006888;28;20050;-87
2023/05/05 13:38:42;;;;;;;3.35;1.20;;;26.90;1.00;;;;;;5003109;28;20050;-88
2023/05/05 13:41:32;;;;;;;5.03;1.50;;;26.70;1.00;;;;;;4995531;28;20090;-86
2023/05/05 13:44:19;;;;;;;3.80;1.30;;;25.60;1.00;;;;;;4988317;28;20491;-86
2023/05/05 13:47:07;;;;;;;3.13;1.48;;;25.60;1.00;;;;;;4976241;28;20054;-87
2023/05/05 13:49:56;;;;;;;4.95;1.40;;;24.60;1.00;;;;;;4981093;28;20134;-89
2023/05/05 13:52:44;;;;;;;2.72;1.27;;;24.20;1.00;;;;;;4983185;28;20058;-87
2023/05/05 13:55:31;;;;;;;1.58;1.48;;;24.40;1.00;;;;;;4966226;28;20042;-88
2023/05/05 13:58:18;;;;;;;2.83;1.50;;;24.10;1.00;;;;;;4976453;28;20134;-87
2023/05/05 14:01:09;;;;;;;3.22;1.33;;;23.60;1.00;;;;;;4990924;28;20061;-87
2023/05/05 14:03:59;;;;;;;2.13;1.60;;;23.40;1.00;;;;;;4987110;28;20057;-88
2023/05/05 14:06:49;;;;;;;3.30;2.00;;;23.10;1.00;;;;;;4967572;28;20051;-86
2023/05/05 14:09:42;;;;;;;3.13;1.52;;;22.60;1.00;;;;;;4980491;28;20039;-88
2023/05/05 14:23:19;;;;;;;5.30;1.73;;;21.30;1.00;;;;;;5628436;22;20113;-90
2023/05/05 14:26:07;;;;;;;3.80;1.98;;;21.30;1.00;;;;;;5023358;28;20060;-89
2023/05/05 14:28:55;;;;;;;4.80;1.80;;;21.30;1.00;;;;;;5026495;28;20052;-87
2023/05/05 14:31:42;;;;;;;6.18;1.80;;;21.40;1.00;;;;;;5035432;28;20120;-88
2023/05/05 14:34:32;;;;;;;3.40;1.70;;;21.50;1.00;;;;;;5023858;28;20355;-87
2023/05/05 14:37:19;;;;;;;6.88;2.40;;;21.40;1.00;;;;;;5007054;28;20041;-87
2023/05/05 14:40:07;;;;;;;4.13;1.75;;;21.20;1.00;;;;;;5037859;28;20045;-87
2023/05/05 14:42:54;;;;;;;3.72;1.70;;;21.10;1.00;;;;;;5020228;28;20049;-85
2023/05/05 14:45:43;;;;;;;2.80;1.67;;;20.90;1.00;;;;;;5038687;28;20076;-87
2023/05/05 14:48:30;;;;;;;3.45;1.85;;;20.80;1.00;;;;;;5039878;28;20068;-89
2023/05/05 14:51:18;;;;;;;3.70;1.80;;;20.70;1.00;;;;;;5027721;28;20098;-87
2023/05/05 14:54:05;;;;;;;2.80;1.80;;;20.60;1.00;;;;;;5040821;28;20046;-88
2023/05/05 14:57:06;;;;;;;7.25;2.15;;;20.40;1.00;;;;;;5030964;28;20121;-86
2023/05/05 14:59:56;;;;;;;4.22;2.95;;;20.40;1.00;;;;;;5037849;28;20057;-85
2023/05/05 15:02:43;;;;;;;5.35;2.42;;;20.30;1.00;;;;;;5038927;28;20049;-88
2023/05/05 15:05:30;;;;;;;3.05;2.00;;;20.10;13.40;;;;;;5036091;28;20045;-88
2023/05/05 15:08:20;;;;;;;5.05;2.15;;;19.80;17.80;;;;;;5030572;28;20053;-88
2023/05/05 15:11:10;;;;;;;7.07;3.80;;;19.60;29.80;;;;;;5032951;28;20053;-89
2023/05/05 15:13:57;;;;;;;4.03;2.55;;;19.40;31.70;;;;;;5020686;28;20104;-86